»·PEaware :: N9229P KAPA-KLBF

N9229P :: KAPA-KLBF

FLIGHT INFORMATION

Flight Status: Arrived
Operator: Privately registered:
United States
More flights under this callsign
Pilot: James W. (24810)
Aircraft: PIPER PA-24 COMMANCHE
(PA24)
More flights by this aircraft type
Origin: KAPA Centennial
United States
Destination: KLBF North Platte Regl-Bird
United States
More flights between these airports :: More routes between these airports
Route: +PLAINS1 AKO LBF
File this flight plan on PilotEdge
Remarks:
Altitude:
(Current/Filed)
7,000ft
Speed:
(Current/Filed)
165kts
Departed: 19-Apr-20 12:55 PM
Arrived: 19-Apr-20 02:25 PM
Distance/Time
Traveled:
212nm/1:30
Distance/Time
To Go:
Arrived

Flight Plot

Page will automatically refresh every two minutes.

Flight plan parsing failed; only flown route is shown


Map Options




Map Legend


Flown Route
Filed Route
Departure Airport
Arrival Airport
Navaid (VOR, NDB)
Fix

Horizontal Profiles

Position Reports

Time Latitude Longitude Heading Altitude Ground
Speed
19-Apr-20 12:31 39.570928 -104.848357 179 5886ft 0kts
19-Apr-20 12:32 39.570928 -104.848357 179 5886ft 0kts
19-Apr-20 12:33 39.570928 -104.848357 179 5886ft 0kts
19-Apr-20 12:34 39.570928 -104.848357 179 5886ft 0kts
19-Apr-20 12:35 39.570928 -104.848357 179 5886ft 0kts
19-Apr-20 12:36 39.570928 -104.848357 179 5886ft 0kts
19-Apr-20 12:37 39.570928 -104.848357 179 5886ft 0kts
19-Apr-20 12:38 39.570928 -104.848357 179 5886ft 0kts
19-Apr-20 12:39 39.570928 -104.848357 179 5886ft 0kts
19-Apr-20 12:40 39.570928 -104.848357 179 5886ft 0kts
19-Apr-20 12:41 39.570928 -104.848357 179 5886ft 0kts
19-Apr-20 12:42 39.570928 -104.848357 179 5886ft 0kts
19-Apr-20 12:43 39.570928 -104.848357 179 5886ft 0kts
19-Apr-20 12:44 39.570928 -104.848357 179 5886ft 0kts
19-Apr-20 12:45 39.570928 -104.848357 179 5886ft 0kts
19-Apr-20 12:46 39.570928 -104.848357 179 5886ft 0kts
19-Apr-20 12:47 39.570996 -104.848664 336 5886ft 3kts
19-Apr-20 12:48 39.572699 -104.849544 357 5886ft 11kts
19-Apr-20 12:49 39.576445 -104.849710 357 5886ft 12kts
19-Apr-20 12:50 39.579629 -104.849857 357 5886ft 12kts
19-Apr-20 12:51 39.583282 -104.850022 359 5886ft 11kts
19-Apr-20 12:52 39.584115 -104.850235 272 5886ft 0kts
19-Apr-20 12:53 39.584115 -104.850235 272 5886ft 0kts
19-Apr-20 12:54 39.579880 -104.851281 177 5886ft 80kts
19-Apr-20 12:55 39.545647 -104.849070 176 6573ft 144kts
19-Apr-20 12:56 39.503473 -104.846217 176 7316ft 159kts
19-Apr-20 12:57 39.458791 -104.843063 171 8015ft 161kts
19-Apr-20 12:58 39.458397 -104.797823 53 8730ft 159kts
19-Apr-20 12:59 39.485504 -104.749152 53 9017ft 174kts
19-Apr-20 13:00 39.514376 -104.697132 53 9018ft 177kts
19-Apr-20 13:01 39.542956 -104.645573 53 9018ft 176kts
19-Apr-20 13:02 39.572172 -104.592839 53 9018ft 182kts
19-Apr-20 13:03 39.601705 -104.539409 53 9018ft 182kts
19-Apr-20 13:04 39.631126 -104.486094 51 9018ft 181kts
19-Apr-20 13:05 39.660582 -104.432640 51 9018ft 183kts
19-Apr-20 13:06 39.690297 -104.378614 51 9017ft 184kts
19-Apr-20 13:07 39.720340 -104.323912 52 9013ft 188kts
19-Apr-20 13:08 39.750964 -104.268036 53 9011ft 191kts
19-Apr-20 13:09 39.781890 -104.211506 53 9009ft 192kts
19-Apr-20 13:10 39.812914 -104.154678 52 8994ft 191kts
19-Apr-20 13:11 39.843137 -104.099246 52 8988ft 186kts
19-Apr-20 13:12 39.873080 -104.044241 52 8985ft 186kts
19-Apr-20 13:13 39.903214 -103.988775 52 8983ft 187kts
19-Apr-20 13:14 39.933284 -103.933325 52 8981ft 188kts
19-Apr-20 13:15 39.963435 -103.877630 52 8981ft 188kts
19-Apr-20 13:16 39.993630 -103.821756 52 8981ft 188kts
19-Apr-20 13:17 40.022826 -103.765156 68 8977ft 190kts
19-Apr-20 13:18 40.037950 -103.698904 71 8981ft 190kts
19-Apr-20 13:19 40.053137 -103.632675 71 8983ft 190kts
19-Apr-20 13:20 40.068296 -103.566286 70 8985ft 191kts
19-Apr-20 13:21 40.083476 -103.499617 70 8988ft 191kts
19-Apr-20 13:22 40.098597 -103.433042 69 8989ft 191kts
19-Apr-20 13:23 40.113822 -103.365850 69 8994ft 193kts
19-Apr-20 13:24 40.129013 -103.298428 70 8988ft 193kts
19-Apr-20 13:25 40.144098 -103.231423 71 8991ft 192kts
19-Apr-20 13:26 40.161545 -103.165626 57 8985ft 191kts
19-Apr-20 13:27 40.186631 -103.103992 59 8989ft 193kts
19-Apr-20 13:28 40.211596 -103.041906 59 8991ft 193kts
19-Apr-20 13:29 40.236652 -102.979685 60 8987ft 195kts
19-Apr-20 13:30 40.261974 -102.916789 60 8992ft 195kts
19-Apr-20 13:32 40.287174 -102.854003 60 8987ft 194kts
19-Apr-20 13:33 40.312194 -102.791535 61 8985ft 193kts
19-Apr-20 13:34 40.336985 -102.729533 61 8982ft 192kts
19-Apr-20 13:35 40.361665 -102.667683 61 8982ft 191kts
19-Apr-20 13:36 40.386326 -102.605751 61 8982ft 191kts
19-Apr-20 13:37 40.410869 -102.544031 61 8982ft 191kts
19-Apr-20 13:38 40.435406 -102.482130 61 8982ft 191kts
19-Apr-20 13:39 40.459863 -102.420301 61 8982ft 191kts
19-Apr-20 13:40 40.484264 -102.358507 61 8982ft 191kts
19-Apr-20 13:41 40.508102 -102.296532 72 8975ft 191kts
19-Apr-20 13:42 40.521373 -102.229775 63 8981ft 190kts
19-Apr-20 13:43 40.544616 -102.167265 64 8981ft 190kts
19-Apr-20 13:44 40.567550 -102.104337 64 8981ft 190kts
19-Apr-20 13:45 40.590398 -102.041342 64 8981ft 191kts
19-Apr-20 13:46 40.613246 -101.978224 64 8981ft 191kts
19-Apr-20 13:47 40.636008 -101.915211 64 8978ft 191kts
19-Apr-20 13:48 40.658848 -101.851844 64 8976ft 191kts
19-Apr-20 13:48 40.677831 -101.799070 64 8974ft 192kts
19-Apr-20 13:50 40.704486 -101.724801 64 8973ft 192kts
19-Apr-20 13:51 40.727323 -101.661015 64 8973ft 192kts
19-Apr-20 13:52 40.750085 -101.597296 64 8973ft 192kts
19-Apr-20 13:52 40.769060 -101.544072 64 8973ft 192kts
19-Apr-20 13:53 40.791764 -101.480254 64 8973ft 192kts
19-Apr-20 13:55 40.818173 -101.405843 64 8973ft 192kts
19-Apr-20 13:55 40.837077 -101.352459 64 8973ft 192kts
19-Apr-20 13:56 40.859726 -101.288376 65 8972ft 192kts
19-Apr-20 13:57 40.882128 -101.224553 64 8974ft 192kts
19-Apr-20 13:58 40.904597 -101.160595 64 8976ft 191kts
19-Apr-20 13:59 40.926872 -101.097139 63 8979ft 189kts
19-Apr-20 14:00 40.948929 -101.034158 63 8981ft 188kts
19-Apr-20 14:01 40.970824 -100.971500 63 8981ft 188kts
19-Apr-20 14:02 41.011669 -100.941052 3 8586ft 183kts
19-Apr-20 14:03 41.060074 -100.933279 3 8015ft 167kts
19-Apr-20 14:04 41.104464 -100.926102 3 7313ft 156kts
19-Apr-20 14:05 41.145936 -100.919390 3 6715ft 147kts
19-Apr-20 14:06 41.186281 -100.912819 4 6119ft 145kts
19-Apr-20 14:07 41.226437 -100.906266 5 5546ft 144kts
19-Apr-20 14:08 41.259742 -100.924521 306 5059ft 144kts
19-Apr-20 14:09 41.281078 -100.963517 307 5024ft 117kts
19-Apr-20 14:10 41.298490 -100.996147 290 4921ft 107kts
19-Apr-20 14:11 41.285156 -101.021352 174 4918ft 91kts
19-Apr-20 14:12 41.272389 -100.997027 83 4919ft 96kts
19-Apr-20 14:13 41.276644 -100.961996 86 4917ft 96kts
19-Apr-20 14:14 41.264891 -100.933156 127 4917ft 90kts
19-Apr-20 14:15 41.250139 -100.905926 128 4917ft 90kts
19-Apr-20 14:16 41.235178 -100.878988 128 4917ft 90kts
19-Apr-20 14:17 41.220470 -100.851894 128 4917ft 90kts
19-Apr-20 14:18 41.205738 -100.824791 128 4917ft 90kts
19-Apr-20 14:19 41.191074 -100.798015 128 4727ft 86kts
19-Apr-20 14:20 41.177077 -100.772225 127 4211ft 86kts
19-Apr-20 14:21 41.163357 -100.747109 126 3868ft 86kts
19-Apr-20 14:22 41.148819 -100.720500 125 3409ft 88kts
19-Apr-20 14:23 41.133833 -100.693223 126 2874ft 87kts
19-Apr-20 14:24 41.126287 -100.679359 127 2779ft 18kts
19-Apr-20 14:25 41.125536 -100.681639 305 2779ft 19kts
19-Apr-20 14:26 41.129944 -100.689689 305 2779ft 26kts
19-Apr-20 14:27 41.131118 -100.695393 269 2779ft 12kts

Navigation Log

Ident Type
Flight plan parsing failed, navigation log unavailable